sensor_id;sensor_type;location;lat;lon;timestamp;temperature;humidity
37956;DHT22;23776;51.592;7.180;2023-07-24T00:01:58;17.90;30.60
37956;DHT22;23776;51.592;7.180;2023-07-24T00:04:24;17.90;31.20
37956;DHT22;23776;51.592;7.180;2023-07-24T00:06:50;17.90;30.00
37956;DHT22;23776;51.592;7.180;2023-07-24T00:09:15;17.80;29.30
37956;DHT22;23776;51.592;7.180;2023-07-24T00:11:41;17.70;29.70
37956;DHT22;23776;51.592;7.180;2023-07-24T00:14:06;17.70;29.50
37956;DHT22;23776;51.592;7.180;2023-07-24T00:16:32;17.80;28.40
37956;DHT22;23776;51.592;7.180;2023-07-24T00:18:58;17.70;29.60
37956;DHT22;23776;51.592;7.180;2023-07-24T00:21:23;17.70;29.90
37956;DHT22;23776;51.592;7.180;2023-07-24T00:23:49;17.70;31.90
37956;DHT22;23776;51.592;7.180;2023-07-24T00:26:14;17.70;28.90
37956;DHT22;23776;51.592;7.180;2023-07-24T00:28:40;17.60;29.20
37956;DHT22;23776;51.592;7.180;2023-07-24T00:31:06;17.60;29.30
37956;DHT22;23776;51.592;7.180;2023-07-24T00:33:31;17.60;28.60
37956;DHT22;23776;51.592;7.180;2023-07-24T00:35:57;18.30;29.20
37956;DHT22;23776;51.592;7.180;2023-07-24T00:38:23;17.50;29.10
37956;DHT22;23776;51.592;7.180;2023-07-24T00:40:49;17.60;29.30
37956;DHT22;23776;51.592;7.180;2023-07-24T00:43:15;17.50;28.10
37956;DHT22;23776;51.592;7.180;2023-07-24T00:45:42;17.50;28.30
37956;DHT22;23776;51.592;7.180;2023-07-24T00:48:08;17.50;28.90
37956;DHT22;23776;51.592;7.180;2023-07-24T00:50:33;17.40;28.90
37956;DHT22;23776;51.592;7.180;2023-07-24T00:53:00;17.40;29.80
37956;DHT22;23776;51.592;7.180;2023-07-24T00:55:26;17.50;30.00
37956;DHT22;23776;51.592;7.180;2023-07-24T00:57:51;17.40;31.70
37956;DHT22;23776;51.592;7.180;2023-07-24T01:00:17;17.60;29.70
37956;DHT22;23776;51.592;7.180;2023-07-24T01:02:43;17.60;28.80
37956;DHT22;23776;51.592;7.180;2023-07-24T01:05:12;17.60;28.80
37956;DHT22;23776;51.592;7.180;2023-07-24T01:07:38;17.60;29.20
37956;DHT22;23776;51.592;7.180;2023-07-24T01:10:04;17.60;29.20
37956;DHT22;23776;51.592;7.180;2023-07-24T01:12:39;17.60;28.50
37956;DHT22;23776;51.592;7.180;2023-07-24T01:15:42;17.60;29.10
37956;DHT22;23776;51.592;7.180;2023-07-24T01:18:06;17.60;30.30
37956;DHT22;23776;51.592;7.180;2023-07-24T01:20:36;17.60;27.10
37956;DHT22;23776;51.592;7.180;2023-07-24T01:26:07;17.60;28.40
37956;DHT22;23776;51.592;7.180;2023-07-24T01:28:33;17.60;28.70
37956;DHT22;23776;51.592;7.180;2023-07-24T01:30:59;17.60;26.30
37956;DHT22;23776;51.592;7.180;2023-07-24T01:33:25;17.60;26.90
37956;DHT22;23776;51.592;7.180;2023-07-24T01:35:57;17.60;28.20
37956;DHT22;23776;51.592;7.180;2023-07-24T01:38:26;17.60;27.00
37956;DHT22;23776;51.592;7.180;2023-07-24T01:40:53;17.60;26.00
37956;DHT22;23776;51.592;7.180;2023-07-24T01:43:19;17.60;28.00
37956;DHT22;23776;51.592;7.180;2023-07-24T01:45:45;17.60;26.20
37956;DHT22;23776;51.592;7.180;2023-07-24T01:48:10;17.70;25.30
37956;DHT22;23776;51.592;7.180;2023-07-24T01:50:36;17.90;23.80
37956;DHT22;23776;51.592;7.180;2023-07-24T01:53:02;17.60;26.10
37956;DHT22;23776;51.592;7.180;2023-07-24T01:55:27;17.60;25.10
37956;DHT22;23776;51.592;7.180;2023-07-24T01:57:53;17.60;25.80
37956;DHT22;23776;51.592;7.180;2023-07-24T02:00:18;17.60;26.70
37956;DHT22;23776;51.592;7.180;2023-07-24T02:02:44;17.60;25.40
37956;DHT22;23776;51.592;7.180;2023-07-24T02:05:10;17.60;25.90
37956;DHT22;23776;51.592;7.180;2023-07-24T02:07:35;17.60;26.50
37956;DHT22;23776;51.592;7.180;2023-07-24T02:10:01;17.60;25.50
37956;DHT22;23776;51.592;7.180;2023-07-24T02:12:26;17.60;26.10
37956;DHT22;23776;51.592;7.180;2023-07-24T02:14:52;17.60;25.00
37956;DHT22;23776;51.592;7.180;2023-07-24T02:17:18;17.60;26.00
37956;DHT22;23776;51.592;7.180;2023-07-24T02:19:44;17.60;25.70
37956;DHT22;23776;51.592;7.180;2023-07-24T02:22:11;17.50;26.40
37956;DHT22;23776;51.592;7.180;2023-07-24T02:24:36;17.60;26.60
37956;DHT22;23776;51.592;7.180;2023-07-24T02:27:02;17.60;22.90
37956;DHT22;23776;51.592;7.180;2023-07-24T02:29:28;17.60;23.20
37956;DHT22;23776;51.592;7.180;2023-07-24T02:31:54;17.60;23.10
37956;DHT22;23776;51.592;7.180;2023-07-24T02:34:20;17.70;22.50
37956;DHT22;23776;51.592;7.180;2023-07-24T02:36:50;17.70;21.20
37956;DHT22;23776;51.592;7.180;2023-07-24T02:39:16;17.70;20.60
37956;DHT22;23776;51.592;7.180;2023-07-24T02:41:41;17.70;20.70
37956;DHT22;23776;51.592;7.180;2023-07-24T02:44:07;17.80;19.40
37956;DHT22;23776;51.592;7.180;2023-07-24T02:46:33;20.50;18.90
37956;DHT22;23776;51.592;7.180;2023-07-24T02:48:59;17.80;17.70
37956;DHT22;23776;51.592;7.180;2023-07-24T02:51:24;17.70;17.80
37956;DHT22;23776;51.592;7.180;2023-07-24T02:53:50;17.80;17.60
37956;DHT22;23776;51.592;7.180;2023-07-24T02:56:15;17.80;13.30
37956;DHT22;23776;51.592;7.180;2023-07-24T02:58:41;17.80;13.20
37956;DHT22;23776;51.592;7.180;2023-07-24T03:01:07;17.90;13.90
37956;DHT22;23776;51.592;7.180;2023-07-24T03:03:33;17.90;13.80
37956;DHT22;23776;51.592;7.180;2023-07-24T03:05:59;17.80;11.00
37956;DHT22;23776;51.592;7.180;2023-07-24T03:08:25;17.90;13.20
37956;DHT22;23776;51.592;7.180;2023-07-24T03:10:51;17.90;10.30
37956;DHT22;23776;51.592;7.180;2023-07-24T03:13:16;18.00;9.30
37956;DHT22;23776;51.592;7.180;2023-07-24T03:15:42;18.00;2.80
37956;DHT22;23776;51.592;7.180;2023-07-24T03:18:07;18.00;2.30
37956;DHT22;23776;51.592;7.180;2023-07-24T03:20:33;18.10;2.30
37956;DHT22;23776;51.592;7.180;2023-07-24T03:22:58;18.00;2.80
37956;DHT22;23776;51.592;7.180;2023-07-24T03:25:24;18.00;3.20
37956;DHT22;23776;51.592;7.180;2023-07-24T03:27:50;18.60;3.80
37956;DHT22;23776;51.592;7.180;2023-07-24T03:30:15;17.90;6.60
37956;DHT22;23776;51.592;7.180;2023-07-24T03:32:41;17.90;13.40
37956;DHT22;23776;51.592;7.180;2023-07-24T03:35:07;17.80;12.60
37956;DHT22;23776;51.592;7.180;2023-07-24T03:37:34;17.80;13.20
37956;DHT22;23776;51.592;7.180;2023-07-24T03:40:01;17.80;21.50
37956;DHT22;23776;51.592;7.180;2023-07-24T03:42:27;17.80;22.10
37956;DHT22;23776;51.592;7.180;2023-07-24T03:44:54;17.70;23.50
37956;DHT22;23776;51.592;7.180;2023-07-24T03:47:19;17.70;26.40
37956;DHT22;23776;51.592;7.180;2023-07-24T03:49:45;17.70;26.00
37956;DHT22;23776;51.592;7.180;2023-07-24T03:52:10;17.70;25.10
37956;DHT22;23776;51.592;7.180;2023-07-24T03:54:36;17.70;25.50
37956;DHT22;23776;51.592;7.180;2023-07-24T03:57:02;17.70;26.00
37956;DHT22;23776;51.592;7.180;2023-07-24T03:59:28;17.70;27.80
37956;DHT22;23776;51.592;7.180;2023-07-24T04:01:53;17.70;33.60
37956;DHT22;23776;51.592;7.180;2023-07-24T04:04:20;17.70;35.60
37956;DHT22;23776;51.592;7.180;2023-07-24T04:06:46;17.60;34.10
37956;DHT22;23776;51.592;7.180;2023-07-24T04:09:11;17.60;35.40
37956;DHT22;23776;51.592;7.180;2023-07-24T04:11:43;17.60;37.80
37956;DHT22;23776;51.592;7.180;2023-07-24T04:14:09;17.50;39.40
37956;DHT22;23776;51.592;7.180;2023-07-24T04:16:35;17.60;40.30
37956;DHT22;23776;51.592;7.180;2023-07-24T04:19:01;17.50;41.60
37956;DHT22;23776;51.592;7.180;2023-07-24T04:21:26;17.50;42.00
37956;DHT22;23776;51.592;7.180;2023-07-24T04:23:52;17.50;42.30
37956;DHT22;23776;51.592;7.180;2023-07-24T04:26:18;17.50;40.90
37956;DHT22;23776;51.592;7.180;2023-07-24T04:28:43;17.50;41.80
37956;DHT22;23776;51.592;7.180;2023-07-24T04:31:09;17.40;41.30
37956;DHT22;23776;51.592;7.180;2023-07-24T04:33:34;17.50;42.40
37956;DHT22;23776;51.592;7.180;2023-07-24T04:36:00;17.50;43.50
37956;DHT22;23776;51.592;7.180;2023-07-24T04:38:26;17.50;43.10
37956;DHT22;23776;51.592;7.180;2023-07-24T04:40:51;17.50;43.40
37956;DHT22;23776;51.592;7.180;2023-07-24T04:43:17;17.50;43.00
37956;DHT22;23776;51.592;7.180;2023-07-24T04:45:42;17.60;42.40
37956;DHT22;23776;51.592;7.180;2023-07-24T04:48:08;17.60;43.30
37956;DHT22;23776;51.592;7.180;2023-07-24T04:50:34;17.60;43.50
37956;DHT22;23776;51.592;7.180;2023-07-24T04:52:59;17.60;44.30
37956;DHT22;23776;51.592;7.180;2023-07-24T04:55:25;17.50;43.60
37956;DHT22;23776;51.592;7.180;2023-07-24T04:57:50;17.50;44.50
37956;DHT22;23776;51.592;7.180;2023-07-24T05:00:16;17.50;44.70
37956;DHT22;23776;51.592;7.180;2023-07-24T05:02:42;17.50;44.30
37956;DHT22;23776;51.592;7.180;2023-07-24T05:05:08;17.50;44.80
37956;DHT22;23776;51.592;7.180;2023-07-24T05:07:33;17.50;45.70
37956;DHT22;23776;51.592;7.180;2023-07-24T05:09:59;17.50;44.70
37956;DHT22;23776;51.592;7.180;2023-07-24T05:12:25;17.50;45.50
37956;DHT22;23776;51.592;7.180;2023-07-24T05:14:51;17.50;45.80
37956;DHT22;23776;51.592;7.180;2023-07-24T05:17:17;17.40;45.70
37956;DHT22;23776;51.592;7.180;2023-07-24T05:19:43;17.50;46.40
37956;DHT22;23776;51.592;7.180;2023-07-24T05:22:08;17.50;47.80
37956;DHT22;23776;51.592;7.180;2023-07-24T05:24:36;17.50;48.60
37956;DHT22;23776;51.592;7.180;2023-07-24T05:27:02;17.50;48.00
37956;DHT22;23776;51.592;7.180;2023-07-24T05:29:28;17.60;48.60
37956;DHT22;23776;51.592;7.180;2023-07-24T05:31:53;17.60;48.70
37956;DHT22;23776;51.592;7.180;2023-07-24T05:34:19;17.60;48.60
37956;DHT22;23776;51.592;7.180;2023-07-24T05:36:44;17.60;48.20
37956;DHT22;23776;51.592;7.180;2023-07-24T05:39:10;17.60;48.80
37956;DHT22;23776;51.592;7.180;2023-07-24T05:41:35;17.60;48.80
37956;DHT22;23776;51.592;7.180;2023-07-24T05:44:01;17.70;48.90
37956;DHT22;23776;51.592;7.180;2023-07-24T05:46:26;17.70;48.40
37956;DHT22;23776;51.592;7.180;2023-07-24T05:48:52;17.70;48.70
37956;DHT22;23776;51.592;7.180;2023-07-24T05:51:17;17.70;48.80
37956;DHT22;23776;51.592;7.180;2023-07-24T05:53:43;17.70;49.00
37956;DHT22;23776;51.592;7.180;2023-07-24T05:56:09;17.70;48.70
37956;DHT22;23776;51.592;7.180;2023-07-24T05:58:34;17.80;49.30
37956;DHT22;23776;51.592;7.180;2023-07-24T06:01:00;17.70;49.10
37956;DHT22;23776;51.592;7.180;2023-07-24T06:05:55;17.90;48.90
37956;DHT22;23776;51.592;7.180;2023-07-24T06:08:21;17.90;49.30
37956;DHT22;23776;51.592;7.180;2023-07-24T06:10:48;17.90;49.40
37956;DHT22;23776;51.592;7.180;2023-07-24T06:13:14;18.00;49.20
37956;DHT22;23776;51.592;7.180;2023-07-24T06:15:40;18.10;48.90
37956;DHT22;23776;51.592;7.180;2023-07-24T06:18:05;18.10;49.50
37956;DHT22;23776;51.592;7.180;2023-07-24T06:20:31;18.10;49.40
37956;DHT22;23776;51.592;7.180;2023-07-24T06:22:57;18.10;49.20
37956;DHT22;23776;51.592;7.180;2023-07-24T06:25:22;18.20;49.50
37956;DHT22;23776;51.592;7.180;2023-07-24T06:27:48;18.20;50.00
37956;DHT22;23776;51.592;7.180;2023-07-24T06:30:13;18.30;49.80
37956;DHT22;23776;51.592;7.180;2023-07-24T06:32:39;18.30;49.60
37956;DHT22;23776;51.592;7.180;2023-07-24T06:35:05;18.40;48.70
37956;DHT22;23776;51.592;7.180;2023-07-24T06:37:30;18.30;49.10
37956;DHT22;23776;51.592;7.180;2023-07-24T06:39:56;18.30;48.10
37956;DHT22;23776;51.592;7.180;2023-07-24T06:42:22;18.30;47.30
37956;DHT22;23776;51.592;7.180;2023-07-24T06:44:47;18.30;47.50
37956;DHT22;23776;51.592;7.180;2023-07-24T06:47:13;18.30;47.00
37956;DHT22;23776;51.592;7.180;2023-07-24T06:49:38;18.20;46.10
37956;DHT22;23776;51.592;7.180;2023-07-24T06:52:04;15.80;45.90
37956;DHT22;23776;51.592;7.180;2023-07-24T06:54:30;18.20;46.20
37956;DHT22;23776;51.592;7.180;2023-07-24T06:56:55;18.30;48.00
37956;DHT22;23776;51.592;7.180;2023-07-24T06:59:21;18.40;48.70
37956;DHT22;23776;51.592;7.180;2023-07-24T07:01:46;18.40;47.60
37956;DHT22;23776;51.592;7.180;2023-07-24T07:04:12;18.40;46.80
37956;DHT22;23776;51.592;7.180;2023-07-24T07:06:38;18.50;41.50
37956;DHT22;23776;51.592;7.180;2023-07-24T07:09:03;18.40;41.00
37956;DHT22;23776;51.592;7.180;2023-07-24T07:11:30;18.60;40.70
37956;DHT22;23776;51.592;7.180;2023-07-24T07:13:55;18.50;27.60
37956;DHT22;23776;51.592;7.180;2023-07-24T07:16:21;18.50;27.90
37956;DHT22;23776;51.592;7.180;2023-07-24T07:18:46;18.50;28.80
37956;DHT22;23776;51.592;7.180;2023-07-24T07:21:12;18.50;23.50
37956;DHT22;23776;51.592;7.180;2023-07-24T07:23:37;18.60;20.40
37956;DHT22;23776;51.592;7.180;2023-07-24T07:26:03;18.60;16.40
37956;DHT22;23776;51.592;7.180;2023-07-24T07:28:29;18.60;15.00
37956;DHT22;23776;51.592;7.180;2023-07-24T07:30:54;18.60;18.50
37956;DHT22;23776;51.592;7.180;2023-07-24T07:33:20;18.70;14.50
37956;DHT22;23776;51.592;7.180;2023-07-24T07:35:49;18.80;12.00
37956;DHT22;23776;51.592;7.180;2023-07-24T07:38:14;18.70;1.00
37956;DHT22;23776;51.592;7.180;2023-07-24T07:40:40;18.70;1.00
37956;DHT22;23776;51.592;7.180;2023-07-24T07:43:06;18.80;1.00
37956;DHT22;23776;51.592;7.180;2023-07-24T07:45:31;18.80;1.00
37956;DHT22;23776;51.592;7.180;2023-07-24T07:47:57;18.90;1.00
37956;DHT22;23776;51.592;7.180;2023-07-24T07:50:22;18.80;1.00
37956;DHT22;23776;51.592;7.180;2023-07-24T07:52:51;18.90;1.00
37956;DHT22;23776;51.592;7.180;2023-07-24T07:55:18;18.70;1.00
37956;DHT22;23776;51.592;7.180;2023-07-24T07:57:43;18.70;1.00
37956;DHT22;23776;51.592;7.180;2023-07-24T08:00:09;18.60;1.00
37956;DHT22;23776;51.592;7.180;2023-07-24T08:02:35;18.50;9.20
37956;DHT22;23776;51.592;7.180;2023-07-24T08:07:31;18.40;18.40
37956;DHT22;23776;51.592;7.180;2023-07-24T08:09:56;18.40;21.50
37956;DHT22;23776;51.592;7.180;2023-07-24T08:12:22;18.50;9.20
37956;DHT22;23776;51.592;7.180;2023-07-24T08:14:47;18.40;13.00
37956;DHT22;23776;51.592;7.180;2023-07-24T08:17:13;18.50;19.10
37956;DHT22;23776;51.592;7.180;2023-07-24T08:19:38;18.60;1.00
37956;DHT22;23776;51.592;7.180;2023-07-24T08:22:04;18.60;9.50
37956;DHT22;23776;51.592;7.180;2023-07-24T08:24:34;18.80;9.90
37956;DHT22;23776;51.592;7.180;2023-07-24T08:27:00;19.00;1.00
37956;DHT22;23776;51.592;7.180;2023-07-24T08:29:26;19.00;1.00
37956;DHT22;23776;51.592;7.180;2023-07-24T08:31:51;19.10;1.00
37956;DHT22;23776;51.592;7.180;2023-07-24T08:34:17;19.00;1.00
37956;DHT22;23776;51.592;7.180;2023-07-24T08:36:42;19.10;1.00
37956;DHT22;23776;51.592;7.180;2023-07-24T08:39:08;19.00;1.00
37956;DHT22;23776;51.592;7.180;2023-07-24T08:41:34;19.20;1.00
37956;DHT22;23776;51.592;7.180;2023-07-24T08:44:01;19.40;1.00
37956;DHT22;23776;51.592;7.180;2023-07-24T08:46:27;19.50;1.00
37956;DHT22;23776;51.592;7.180;2023-07-24T08:48:54;19.60;1.00
37956;DHT22;23776;51.592;7.180;2023-07-24T08:51:21;19.60;1.00
37956;DHT22;23776;51.592;7.180;2023-07-24T08:53:47;19.60;1.00
37956;DHT22;23776;51.592;7.180;2023-07-24T08:56:14;19.50;1.00
37956;DHT22;23776;51.592;7.180;2023-07-24T08:58:40;19.50;1.00
37956;DHT22;23776;51.592;7.180;2023-07-24T09:01:07;19.50;1.00
37956;DHT22;23776;51.592;7.180;2023-07-24T09:03:33;19.70;1.00
37956;DHT22;23776;51.592;7.180;2023-07-24T09:05:59;20.00;1.00
37956;DHT22;23776;51.592;7.180;2023-07-24T09:08:37;20.00;1.00
37956;DHT22;23776;51.592;7.180;2023-07-24T09:11:04;20.10;1.00
37956;DHT22;23776;51.592;7.180;2023-07-24T09:13:30;20.10;1.00
37956;DHT22;23776;51.592;7.180;2023-07-24T09:15:56;20.40;1.00
37956;DHT22;23776;51.592;7.180;2023-07-24T09:18:22;20.40;1.00
37956;DHT22;23776;51.592;7.180;2023-07-24T09:20:48;20.40;99.90
37956;DHT22;23776;51.592;7.180;2023-07-24T09:23:15;20.20;99.90
37956;DHT22;23776;51.592;7.180;2023-07-24T09:25:43;20.10;99.90
37956;DHT22;23776;51.592;7.180;2023-07-24T09:28:12;20.10;99.90
37956;DHT22;23776;51.592;7.180;2023-07-24T09:30:39;20.20;99.90
37956;DHT22;23776;51.592;7.180;2023-07-24T09:33:05;20.10;99.90
37956;DHT22;23776;51.592;7.180;2023-07-24T09:35:31;20.00;99.90
37956;DHT22;23776;51.592;7.180;2023-07-24T09:38:08;20.00;99.90
37956;DHT22;23776;51.592;7.180;2023-07-24T09:40:44;20.20;99.90
37956;DHT22;23776;51.592;7.180;2023-07-24T09:43:18;20.10;99.90
37956;DHT22;23776;51.592;7.180;2023-07-24T09:45:44;20.30;99.90
37956;DHT22;23776;51.592;7.180;2023-07-24T09:48:12;20.30;99.90
37956;DHT22;23776;51.592;7.180;2023-07-24T09:50:40;20.30;99.90
37956;DHT22;23776;51.592;7.180;2023-07-24T09:53:13;20.30;99.90
37956;DHT22;23776;51.592;7.180;2023-07-24T09:55:51;20.20;99.90
37956;DHT22;23776;51.592;7.180;2023-07-24T09:58:18;20.20;99.90
37956;DHT22;23776;51.592;7.180;2023-07-24T10:00:45;20.20;99.90
37956;DHT22;23776;51.592;7.180;2023-07-24T10:03:11;20.10;99.90
37956;DHT22;23776;51.592;7.180;2023-07-24T10:05:37;20.00;99.90
37956;DHT22;23776;51.592;7.180;2023-07-24T10:08:03;20.00;99.90
37956;DHT22;23776;51.592;7.180;2023-07-24T10:10:30;20.10;99.90
37956;DHT22;23776;51.592;7.180;2023-07-24T10:12:57;20.10;1.00
37956;DHT22;23776;51.592;7.180;2023-07-24T10:15:24;22.70;99.90
37956;DHT22;23776;51.592;7.180;2023-07-24T10:18:05;20.20;99.90
37956;DHT22;23776;51.592;7.180;2023-07-24T10:20:35;20.30;99.90
37956;DHT22;23776;51.592;7.180;2023-07-24T10:23:04;20.20;99.90
37956;DHT22;23776;51.592;7.180;2023-07-24T10:25:31;20.30;99.90
37956;DHT22;23776;51.592;7.180;2023-07-24T10:28:04;20.30;99.90
37956;DHT22;23776;51.592;7.180;2023-07-24T10:30:40;20.40;99.90
37956;DHT22;23776;51.592;7.180;2023-07-24T10:33:12;20.40;99.90
37956;DHT22;23776;51.592;7.180;2023-07-24T10:35:47;20.70;99.90
37956;DHT22;23776;51.592;7.180;2023-07-24T10:38:15;20.80;99.90
37956;DHT22;23776;51.592;7.180;2023-07-24T10:40:45;20.90;99.90
37956;DHT22;23776;51.592;7.180;2023-07-24T10:43:13;21.20;99.90
37956;DHT22;23776;51.592;7.180;2023-07-24T10:48:08;21.50;90.30
37956;DHT22;23776;51.592;7.180;2023-07-24T10:50:40;21.80;20.10
37956;DHT22;23776;51.592;7.180;2023-07-24T10:53:07;21.90;1.00
37956;DHT22;23776;51.592;7.180;2023-07-24T10:55:33;21.90;1.00
37956;DHT22;23776;51.592;7.180;2023-07-24T10:57:59;21.90;2.90
37956;DHT22;23776;51.592;7.180;2023-07-24T11:00:25;22.00;99.90
37956;DHT22;23776;51.592;7.180;2023-07-24T11:02:53;22.20;1.00
37956;DHT22;23776;51.592;7.180;2023-07-24T11:05:21;22.00;1.00
37956;DHT22;23776;51.592;7.180;2023-07-24T11:07:47;22.00;21.10
37956;DHT22;23776;51.592;7.180;2023-07-24T11:10:22;21.80;99.90
37956;DHT22;23776;51.592;7.180;2023-07-24T11:12:48;21.60;99.90
37956;DHT22;23776;51.592;7.180;2023-07-24T11:15:15;21.20;99.90
37956;DHT22;23776;51.592;7.180;2023-07-24T11:17:42;21.20;99.90
37956;DHT22;23776;51.592;7.180;2023-07-24T11:20:09;21.10;99.90
37956;DHT22;23776;51.592;7.180;2023-07-24T11:22:35;21.10;1.00
37956;DHT22;23776;51.592;7.180;2023-07-24T11:25:03;21.00;97.00
37956;DHT22;23776;51.592;7.180;2023-07-24T11:27:31;20.90;99.90
37956;DHT22;23776;51.592;7.180;2023-07-24T11:29:57;20.70;99.90
37956;DHT22;23776;51.592;7.180;2023-07-24T11:32:22;20.60;99.90
37956;DHT22;23776;51.592;7.180;2023-07-24T11:34:49;20.60;99.90
37956;DHT22;23776;51.592;7.180;2023-07-24T11:37:15;20.50;99.90
37956;DHT22;23776;51.592;7.180;2023-07-24T11:39:41;20.30;99.90
37956;DHT22;23776;51.592;7.180;2023-07-24T11:42:08;20.10;1.00
37956;DHT22;23776;51.592;7.180;2023-07-24T11:44:34;19.70;1.00
37956;DHT22;23776;51.592;7.180;2023-07-24T11:47:04;19.40;1.00
37956;DHT22;23776;51.592;7.180;2023-07-24T11:49:31;19.10;1.00
37956;DHT22;23776;51.592;7.180;2023-07-24T11:52:04;19.00;1.00
37956;DHT22;23776;51.592;7.180;2023-07-24T11:54:33;18.80;1.00
37956;DHT22;23776;51.592;7.180;2023-07-24T11:56:58;18.70;1.00
37956;DHT22;23776;51.592;7.180;2023-07-24T11:59:24;18.50;1.00
37956;DHT22;23776;51.592;7.180;2023-07-24T12:01:50;18.50;8.00
37956;DHT22;23776;51.592;7.180;2023-07-24T12:04:16;18.50;15.50
37956;DHT22;23776;51.592;7.180;2023-07-24T12:06:42;18.30;12.10
37956;DHT22;23776;51.592;7.180;2023-07-24T12:09:08;18.20;9.00
37956;DHT22;23776;51.592;7.180;2023-07-24T12:11:45;18.10;3.40
37956;DHT22;23776;51.592;7.180;2023-07-24T12:14:12;17.90;5.70
37956;DHT22;23776;51.592;7.180;2023-07-24T12:16:38;17.70;3.40
37956;DHT22;23776;51.592;7.180;2023-07-24T12:19:04;17.70;6.70
37956;DHT22;23776;51.592;7.180;2023-07-24T12:21:30;17.50;3.10
37956;DHT22;23776;51.592;7.180;2023-07-24T12:23:55;17.40;1.00
37956;DHT22;23776;51.592;7.180;2023-07-24T12:26:21;17.20;1.00
37956;DHT22;23776;51.592;7.180;2023-07-24T12:28:47;17.20;5.50
37956;DHT22;23776;51.592;7.180;2023-07-24T12:31:13;17.20;13.00
37956;DHT22;23776;51.592;7.180;2023-07-24T12:33:38;17.30;15.30
37956;DHT22;23776;51.592;7.180;2023-07-24T12:36:04;17.50;10.40
37956;DHT22;23776;51.592;7.180;2023-07-24T12:38:29;17.50;6.50
37956;DHT22;23776;51.592;7.180;2023-07-24T12:40:55;17.60;12.50
37956;DHT22;23776;51.592;7.180;2023-07-24T12:43:21;17.80;13.60
37956;DHT22;23776;51.592;7.180;2023-07-24T12:45:47;18.10;1.70
37956;DHT22;23776;51.592;7.180;2023-07-24T12:48:13;18.10;1.00
37956;DHT22;23776;51.592;7.180;2023-07-24T12:50:39;18.30;1.00
37956;DHT22;23776;51.592;7.180;2023-07-24T12:53:04;18.50;1.00
37956;DHT22;23776;51.592;7.180;2023-07-24T12:55:30;21.40;1.00
37956;DHT22;23776;51.592;7.180;2023-07-24T12:57:55;18.50;1.00
37956;DHT22;23776;51.592;7.180;2023-07-24T13:00:21;18.60;1.00
37956;DHT22;23776;51.592;7.180;2023-07-24T13:02:47;18.80;1.00
37956;DHT22;23776;51.592;7.180;2023-07-24T13:05:13;19.30;1.00
37956;DHT22;23776;51.592;7.180;2023-07-24T13:07:38;19.30;1.00
37956;DHT22;23776;51.592;7.180;2023-07-24T13:10:04;19.70;1.00
37956;DHT22;23776;51.592;7.180;2023-07-24T13:12:30;19.80;1.00
37956;DHT22;23776;51.592;7.180;2023-07-24T13:14:56;20.00;1.00
37956;DHT22;23776;51.592;7.180;2023-07-24T13:17:22;20.20;99.90
37956;DHT22;23776;51.592;7.180;2023-07-24T13:19:48;20.50;99.90
37956;DHT22;23776;51.592;7.180;2023-07-24T13:22:13;21.30;99.90
37956;DHT22;23776;51.592;7.180;2023-07-24T13:24:39;22.10;1.00
37956;DHT22;23776;51.592;7.180;2023-07-24T13:27:05;22.80;99.90
37956;DHT22;23776;51.592;7.180;2023-07-24T13:29:30;23.10;93.80
37956;DHT22;23776;51.592;7.180;2023-07-24T13:31:56;23.30;99.90
37956;DHT22;23776;51.592;7.180;2023-07-24T13:34:24;23.60;99.90
37956;DHT22;23776;51.592;7.180;2023-07-24T13:36:50;24.20;99.90
37956;DHT22;23776;51.592;7.180;2023-07-24T13:39:15;24.70;1.00
37956;DHT22;23776;51.592;7.180;2023-07-24T13:41:42;25.50;99.90
37956;DHT22;23776;51.592;7.180;2023-07-24T13:44:08;26.30;99.90
37956;DHT22;23776;51.592;7.180;2023-07-24T13:46:34;27.20;99.90
37956;DHT22;23776;51.592;7.180;2023-07-24T13:49:00;27.80;99.90
37956;DHT22;23776;51.592;7.180;2023-07-24T13:51:25;29.00;1.00
37956;DHT22;23776;51.592;7.180;2023-07-24T13:53:52;30.00;1.00
37956;DHT22;23776;51.592;7.180;2023-07-24T13:56:19;31.00;99.90
37956;DHT22;23776;51.592;7.180;2023-07-24T13:58:45;31.30;99.90
37956;DHT22;23776;51.592;7.180;2023-07-24T14:01:10;32.00;99.90
37956;DHT22;23776;51.592;7.180;2023-07-24T14:03:36;32.30;99.90
37956;DHT22;23776;51.592;7.180;2023-07-24T14:06:02;33.10;99.90
37956;DHT22;23776;51.592;7.180;2023-07-24T14:08:28;30.70;99.90
37956;DHT22;23776;51.592;7.180;2023-07-24T14:10:53;31.50;99.90
37956;DHT22;23776;51.592;7.180;2023-07-24T14:13:19;31.10;99.90
37956;DHT22;23776;51.592;7.180;2023-07-24T14:15:46;31.00;99.90
37956;DHT22;23776;51.592;7.180;2023-07-24T14:18:12;30.50;99.90
37956;DHT22;23776;51.592;7.180;2023-07-24T14:20:37;29.40;99.90
37956;DHT22;23776;51.592;7.180;2023-07-24T14:23:06;27.80;99.90
37956;DHT22;23776;51.592;7.180;2023-07-24T14:25:31;28.60;99.90
37956;DHT22;23776;51.592;7.180;2023-07-24T14:27:57;28.70;99.90
37956;DHT22;23776;51.592;7.180;2023-07-24T14:30:22;29.30;99.90
37956;DHT22;23776;51.592;7.180;2023-07-24T14:32:48;28.60;99.90
37956;DHT22;23776;51.592;7.180;2023-07-24T14:35:15;28.70;99.90
37956;DHT22;23776;51.592;7.180;2023-07-24T14:37:41;28.70;99.90
37956;DHT22;23776;51.592;7.180;2023-07-24T14:40:09;28.40;99.90
37956;DHT22;23776;51.592;7.180;2023-07-24T14:42:35;26.80;99.90
37956;DHT22;23776;51.592;7.180;2023-07-24T14:45:01;26.10;1.00
37956;DHT22;23776;51.592;7.180;2023-07-24T14:47:28;24.40;99.90
37956;DHT22;23776;51.592;7.180;2023-07-24T14:49:54;23.80;99.90
37956;DHT22;23776;51.592;7.180;2023-07-24T14:52:19;23.10;99.90
37956;DHT22;23776;51.592;7.180;2023-07-24T14:54:45;22.80;4.50
37956;DHT22;23776;51.592;7.180;2023-07-24T14:57:11;22.50;99.90
37956;DHT22;23776;51.592;7.180;2023-07-24T14:59:37;22.20;99.90
37956;DHT22;23776;51.592;7.180;2023-07-24T15:02:03;21.90;99.90
37956;DHT22;23776;51.592;7.180;2023-07-24T15:04:28;21.30;1.00
37956;DHT22;23776;51.592;7.180;2023-07-24T15:06:54;21.40;99.90
37956;DHT22;23776;51.592;7.180;2023-07-24T15:09:19;22.10;99.90
37956;DHT22;23776;51.592;7.180;2023-07-24T15:11:45;23.60;99.90
37956;DHT22;23776;51.592;7.180;2023-07-24T15:14:11;25.40;1.00
37956;DHT22;23776;51.592;7.180;2023-07-24T15:16:36;27.50;99.90
37956;DHT22;23776;51.592;7.180;2023-07-24T15:19:02;28.10;1.00
37956;DHT22;23776;51.592;7.180;2023-07-24T15:21:27;27.20;99.90
37956;DHT22;23776;51.592;7.180;2023-07-24T15:23:53;26.30;99.90
37956;DHT22;23776;51.592;7.180;2023-07-24T15:26:19;24.90;1.00
37956;DHT22;23776;51.592;7.180;2023-07-24T15:28:44;24.70;99.90
37956;DHT22;23776;51.592;7.180;2023-07-24T15:31:10;25.40;99.90
37956;DHT22;23776;51.592;7.180;2023-07-24T15:33:36;25.30;32.50
37956;DHT22;23776;51.592;7.180;2023-07-24T15:36:01;25.70;1.00
37956;DHT22;23776;51.592;7.180;2023-07-24T15:38:27;25.80;1.00
37956;DHT22;23776;51.592;7.180;2023-07-24T15:40:52;25.70;1.00